Terminal Aerodrome Forecast
Issued by NWS

Home | Current Version | Previous Version | Graphics & Text | Print | Product List | Glossary On
Versions: 1 2 3 4 5 6 7 8 9 10 11 12 13 14 15 16 17 18 19
000
FTUS43 KUNR 131000 AAB
TAFGCC
TAF AMD
KGCC 131057Z 1311/1406 36017KT P6SM -SN OVC015
      TEMPO 1311/1314 1 1/2SM -SN BKN007 OVC015
     FM131600 35011KT P6SM OVC020
     FM131800 35016KT P6SM SCT040 SCT100
     FM140100 35019KT P6SM OVC040=

USA.gov is the U.S. government's official web portal to all federal, state and local government web resources and services.